createdAt,value
2019-04-27T00:02:26.620Z,0.70
2019-04-27T00:05:11.438Z,0.60
2019-04-27T00:07:51.478Z,0.60
2019-04-27T00:10:37.431Z,0.50
2019-04-27T00:13:05.939Z,0.60
2019-04-27T00:15:59.018Z,0.50
2019-04-27T00:18:57.924Z,0.60
2019-04-27T00:21:40.083Z,0.50
2019-04-27T00:24:08.493Z,0.80
2019-04-27T00:26:36.652Z,0.43
2019-04-27T00:29:04.952Z,0.50
2019-04-27T00:31:33.642Z,0.67
2019-04-27T00:34:03.581Z,0.50
2019-04-27T00:36:38.809Z,0.50
2019-04-27T00:39:19.432Z,0.50
2019-04-27T00:41:47.563Z,0.50
2019-04-27T00:44:17.434Z,0.60
2019-04-27T00:46:47.400Z,0.60
2019-04-27T00:49:16.048Z,0.60
2019-04-27T00:51:44.597Z,0.60
2019-04-27T00:54:13.621Z,0.70
2019-04-27T00:57:03.093Z,0.50
2019-04-27T00:59:54.629Z,0.63
2019-04-27T01:02:45.091Z,0.50
2019-04-27T01:05:20.965Z,0.60
2019-04-27T01:07:50.055Z,0.60
2019-04-27T01:10:18.620Z,0.50
2019-04-27T01:12:46.652Z,1.20
2019-04-27T01:15:15.867Z,0.60
2019-04-27T01:17:43.917Z,0.60
2019-04-27T01:20:13.104Z,0.60
2019-04-27T01:22:41.162Z,0.50
2019-04-27T01:25:09.662Z,0.60
2019-04-27T01:27:59.538Z,0.60
2019-04-27T01:30:32.135Z,0.50
2019-04-27T01:33:00.196Z,0.60
2019-04-27T01:35:32.559Z,0.67
2019-04-27T01:38:02.496Z,0.67
2019-04-27T01:40:30.723Z,0.40
2019-04-27T01:42:59.879Z,0.67
2019-04-27T01:45:29.008Z,0.70
2019-04-27T01:47:57.270Z,0.57
2019-04-27T01:50:25.358Z,0.40
2019-04-27T01:52:53.555Z,0.60
2019-04-27T01:55:21.712Z,0.57
2019-04-27T01:57:50.729Z,0.70
2019-04-27T02:01:02.739Z,0.63
2019-04-27T02:03:59.042Z,0.50
2019-04-27T02:06:29.498Z,0.50
2019-04-27T02:08:59.426Z,0.67
2019-04-27T02:11:28.759Z,0.70
2019-04-27T02:13:57.002Z,0.60
2019-04-27T02:16:25.062Z,0.50
2019-04-27T02:18:53.147Z,0.50
2019-04-27T02:21:22.937Z,0.60
2019-04-27T02:23:51.775Z,0.53
2019-04-27T02:26:21.761Z,0.60
2019-04-27T02:29:12.625Z,0.43
2019-04-27T02:31:55.137Z,0.57
2019-04-27T02:34:25.989Z,0.50
2019-04-27T02:36:54.495Z,0.60
2019-04-27T02:39:22.613Z,0.60
2019-04-27T02:41:52.003Z,0.40
2019-04-27T02:44:45.314Z,0.50
2019-04-27T02:47:13.860Z,0.50
2019-04-27T02:49:41.984Z,0.40
2019-04-27T02:52:30.202Z,0.50
2019-04-27T02:54:59.433Z,0.50
2019-04-27T02:57:29.721Z,0.40
2019-04-27T02:59:59.720Z,0.60
2019-04-27T03:02:47.392Z,0.60
2019-04-27T03:05:24.837Z,0.60
2019-04-27T03:07:53.684Z,0.50
2019-04-27T03:10:22.657Z,0.50
2019-04-27T03:12:59.992Z,0.60
2019-04-27T03:15:49.594Z,0.60
2019-04-27T03:18:34.475Z,0.50
2019-04-27T03:21:15.747Z,0.60
2019-04-27T03:23:44.806Z,0.57
2019-04-27T03:26:44.583Z,0.50
2019-04-27T03:29:13.729Z,0.50
2019-04-27T03:31:47.563Z,0.50
2019-04-27T03:34:16.476Z,0.60
2019-04-27T03:36:44.556Z,0.50
2019-04-27T03:39:13.617Z,0.53
2019-04-27T03:41:41.991Z,0.50
2019-04-27T03:44:11.443Z,0.50
2019-04-27T03:46:39.828Z,0.80
2019-04-27T03:49:09.756Z,0.40
2019-04-27T03:51:54.050Z,0.50
2019-04-27T03:54:50.358Z,0.67
2019-04-27T03:57:30.510Z,0.50
2019-04-27T04:00:04.607Z,0.50
2019-04-27T04:02:34.660Z,0.60
2019-04-27T04:05:05.489Z,0.60
2019-04-27T04:07:33.551Z,0.50
2019-04-27T04:10:01.631Z,0.53
2019-04-27T04:12:50.049Z,0.60
2019-04-27T04:15:29.868Z,0.57
2019-04-27T04:17:59.486Z,0.60
2019-04-27T04:20:30.362Z,0.40
2019-04-27T04:23:02.788Z,0.60
2019-04-27T04:25:33.124Z,0.50
2019-04-27T04:28:00.775Z,0.50
2019-04-27T04:30:30.300Z,0.60
2019-04-27T04:32:59.978Z,0.57
2019-04-27T04:35:32.461Z,0.60
2019-04-27T04:38:00.222Z,0.80
2019-04-27T04:40:40.091Z,1.20
2019-04-27T04:43:19.690Z,0.90
2019-04-27T04:45:55.028Z,1.17
2019-04-27T04:48:23.400Z,1.50
2019-04-27T04:50:51.464Z,1.10
2019-04-27T04:53:20.634Z,0.77
2019-04-27T04:55:49.024Z,0.73
2019-04-27T04:58:20.556Z,1.30
2019-04-27T05:00:47.213Z,1.10
2019-04-27T05:03:15.613Z,0.73
2019-04-27T05:05:43.688Z,0.43
2019-04-27T05:08:12.439Z,0.63
2019-04-27T05:10:40.565Z,0.73
2019-04-27T05:13:09.442Z,0.60
2019-04-27T05:15:39.356Z,0.60
2019-04-27T05:18:09.653Z,0.60
2019-04-27T05:20:58.794Z,0.60
2019-04-27T05:23:28.652Z,0.67
2019-04-27T05:25:56.829Z,0.70
2019-04-27T05:28:25.982Z,0.70
2019-04-27T05:30:54.034Z,0.60
2019-04-27T05:33:22.124Z,0.50
2019-04-27T05:35:50.445Z,0.60
2019-04-27T05:38:19.271Z,0.60
2019-04-27T05:40:47.523Z,0.50
2019-04-27T05:43:19.279Z,0.67
2019-04-27T05:46:49.343Z,0.50
2019-04-27T05:49:23.424Z,0.50
2019-04-27T05:51:51.454Z,0.53
2019-04-27T05:54:19.780Z,0.60
2019-04-27T05:56:49.240Z,0.60
2019-04-27T05:59:19.251Z,0.70
2019-04-27T06:01:49.093Z,0.70
2019-04-27T06:04:19.080Z,0.60
2019-04-27T06:06:47.226Z,0.70
2019-04-27T06:09:15.322Z,0.77
2019-04-27T06:11:43.343Z,0.63
2019-04-27T06:14:11.424Z,0.50
2019-04-27T06:16:39.568Z,0.40
2019-04-27T06:19:09.428Z,0.50
2019-04-27T06:21:37.598Z,0.60
2019-04-27T06:24:08.679Z,0.80
2019-04-27T06:26:36.740Z,0.50
2019-04-27T06:29:04.993Z,0.70
2019-04-27T06:31:34.121Z,0.53
2019-04-27T06:34:02.407Z,0.40
2019-04-27T06:36:30.451Z,0.50
2019-04-27T06:38:59.000Z,0.70
2019-04-27T06:41:29.464Z,0.60
2019-04-27T06:43:59.207Z,0.50
2019-04-27T06:46:28.770Z,0.50
2019-04-27T06:48:57.149Z,0.67
2019-04-27T06:51:25.196Z,0.63
2019-04-27T06:53:54.368Z,0.70
2019-04-27T06:56:22.425Z,0.60
2019-04-27T06:58:50.762Z,0.60
2019-04-27T07:01:19.104Z,0.70
2019-04-27T07:03:48.733Z,0.60
2019-04-27T07:06:18.619Z,0.70
2019-04-27T07:08:49.841Z,0.40
2019-04-27T07:11:19.709Z,0.53
2019-04-27T07:13:49.765Z,0.50
2019-04-27T07:16:19.608Z,0.60
2019-04-27T07:18:47.914Z,0.50
2019-04-27T07:21:19.361Z,0.60
2019-04-27T07:23:59.353Z,0.60
2019-04-27T07:26:30.334Z,0.67
2019-04-27T07:28:59.618Z,0.50
2019-04-27T07:31:31.614Z,0.70
2019-04-27T07:33:59.658Z,0.50
2019-04-27T07:36:28.996Z,0.50
2019-04-27T07:38:57.222Z,0.50
2019-04-27T07:41:25.392Z,0.43
2019-04-27T07:44:03.440Z,0.40
2019-04-27T07:46:31.838Z,0.40
2019-04-27T07:49:01.637Z,0.40
2019-04-27T07:51:34.127Z,0.50
2019-04-27T07:53:59.726Z,0.50
2019-04-27T07:56:29.149Z,0.50
2019-04-27T07:58:59.415Z,0.50
2019-04-27T08:01:29.401Z,0.40
2019-04-27T08:03:59.014Z,0.60
2019-04-27T08:06:29.072Z,0.50
2019-04-27T08:08:58.849Z,0.57
2019-04-27T08:11:29.186Z,0.60
2019-04-27T08:13:58.899Z,0.60
2019-04-27T08:16:28.869Z,0.67
2019-04-27T08:18:57.131Z,0.60
2019-04-27T08:21:25.420Z,0.43
2019-04-27T08:23:53.508Z,0.50
2019-04-27T08:26:35.137Z,0.63
2019-04-27T08:29:18.511Z,0.87
2019-04-27T08:31:58.494Z,0.50
2019-04-27T08:34:32.443Z,0.70
2019-04-27T08:37:02.463Z,0.67
2019-04-27T08:39:30.764Z,0.60
2019-04-27T08:41:59.488Z,0.60
2019-04-27T08:44:31.808Z,0.90
2019-04-27T08:47:01.188Z,0.50
2019-04-27T08:49:31.589Z,0.77
2019-04-27T08:52:01.816Z,0.80
2019-04-27T08:54:29.617Z,0.70
2019-04-27T08:56:59.625Z,0.83
2019-04-27T08:59:29.658Z,0.53
2019-04-27T09:01:58.711Z,0.77
2019-04-27T09:04:28.758Z,0.67
2019-04-27T09:07:02.130Z,0.60
2019-04-27T09:09:37.019Z,0.73
2019-04-27T09:12:23.004Z,1.00
2019-04-27T09:14:59.275Z,0.70
2019-04-27T09:17:39.785Z,0.80
2019-04-27T09:20:14.936Z,0.90
2019-04-27T09:22:43.122Z,0.77
2019-04-27T09:25:11.616Z,0.60
2019-04-27T09:27:40.446Z,0.90
2019-04-27T09:30:10.239Z,0.70
2019-04-27T09:32:40.818Z,0.73
2019-04-27T09:35:09.104Z,0.90
2019-04-27T09:37:37.141Z,0.80
2019-04-27T09:40:06.310Z,1.10
2019-04-27T09:42:38.165Z,0.80
2019-04-27T09:45:06.655Z,0.93
2019-04-27T09:47:38.831Z,0.90
2019-04-27T09:50:06.402Z,0.80
2019-04-27T09:52:35.861Z,1.00
2019-04-27T09:55:06.915Z,0.80
2019-04-27T09:57:36.468Z,1.00
2019-04-27T10:00:08.191Z,0.90
2019-04-27T10:02:37.446Z,0.93
2019-04-27T10:05:06.931Z,0.87
2019-04-27T10:07:35.902Z,0.90
2019-04-27T10:10:06.471Z,1.00
2019-04-27T10:12:36.822Z,0.90
2019-04-27T10:15:06.177Z,1.10
2019-04-27T10:17:35.376Z,0.67
2019-04-27T10:20:05.950Z,0.80
2019-04-27T10:22:41.040Z,0.93
2019-04-27T10:25:05.413Z,0.97
2019-04-27T10:27:33.477Z,0.80
2019-04-27T10:30:01.549Z,0.80
2019-04-27T10:32:29.733Z,0.80
2019-04-27T10:34:57.797Z,1.00
2019-04-27T10:37:26.996Z,0.73
2019-04-27T10:39:56.049Z,0.87
2019-04-27T10:42:25.386Z,0.80
2019-04-27T10:44:56.046Z,0.70
2019-04-27T10:47:25.981Z,0.90
2019-04-27T10:49:54.201Z,0.70
2019-04-27T10:52:22.254Z,0.70
2019-04-27T10:55:00.552Z,0.80
2019-04-27T10:57:30.482Z,0.60
2019-04-27T10:59:59.211Z,1.00
2019-04-27T11:02:27.235Z,0.60
2019-04-27T11:05:14.946Z,0.80
2019-04-27T11:07:43.134Z,0.63
2019-04-27T11:10:11.618Z,0.70
2019-04-27T11:12:39.673Z,0.73
2019-04-27T11:15:09.870Z,1.40
2019-04-27T11:17:38.022Z,1.30
2019-04-27T11:20:07.502Z,0.90
2019-04-27T11:22:36.302Z,1.00
2019-04-27T11:25:06.255Z,1.10
2019-04-27T11:27:34.388Z,0.70
2019-04-27T11:30:02.606Z,0.63
2019-04-27T11:32:32.582Z,0.90
2019-04-27T11:35:08.220Z,0.83
2019-04-27T11:37:39.053Z,0.60
2019-04-27T11:40:07.900Z,0.90
2019-04-27T11:42:35.996Z,0.67
2019-04-27T11:45:06.581Z,0.80
2019-04-27T11:47:36.525Z,0.50
2019-04-27T11:50:08.256Z,0.57
2019-04-27T11:52:36.744Z,0.40
2019-04-27T11:55:05.867Z,0.40
2019-04-27T11:57:35.762Z,0.40
2019-04-27T12:00:07.616Z,0.30
2019-04-27T12:02:36.062Z,0.50
2019-04-27T12:05:07.685Z,0.40
2019-04-27T12:07:35.506Z,0.43
2019-04-27T12:10:05.684Z,0.40
2019-04-27T12:12:36.319Z,0.40
2019-04-27T12:15:06.484Z,0.30
2019-04-27T12:17:35.873Z,0.40
2019-04-27T12:20:05.023Z,0.40
2019-04-27T12:22:34.726Z,0.30
2019-04-27T12:25:03.774Z,0.30
2019-04-27T12:27:55.692Z,0.30
2019-04-27T12:30:46.544Z,0.30
2019-04-27T12:33:15.873Z,0.30
2019-04-27T12:35:43.924Z,0.23
2019-04-27T12:38:12.292Z,0.47
2019-04-27T12:40:40.389Z,0.30
2019-04-27T12:43:08.542Z,0.37
2019-04-27T12:45:40.295Z,0.40
2019-04-27T12:48:07.176Z,0.30
2019-04-27T12:50:36.222Z,0.20
2019-04-27T12:53:08.031Z,0.30
2019-04-27T12:56:01.842Z,0.30
2019-04-27T12:58:53.884Z,0.30
2019-04-27T13:01:25.736Z,0.30
2019-04-27T13:03:57.113Z,0.30
2019-04-27T13:06:23.930Z,0.30
2019-04-27T13:08:52.063Z,0.30
2019-04-27T13:11:22.940Z,0.30
2019-04-27T13:13:51.118Z,0.50
2019-04-27T13:16:19.174Z,0.40
2019-04-27T13:18:47.820Z,0.30
2019-04-27T13:21:17.735Z,0.60
2019-04-27T13:23:46.109Z,0.40
2019-04-27T13:26:14.139Z,0.53
2019-04-27T13:28:42.281Z,0.30
2019-04-27T13:31:10.327Z,0.30
2019-04-27T13:33:38.455Z,0.20
2019-04-27T13:36:07.870Z,0.30
2019-04-27T13:38:36.596Z,0.23
2019-04-27T13:41:06.255Z,0.40
2019-04-27T13:43:35.970Z,0.30
2019-04-27T13:46:16.074Z,0.30
2019-04-27T13:49:02.076Z,0.30
2019-04-27T13:51:49.836Z,0.30
2019-04-27T13:54:25.821Z,0.40
2019-04-27T13:56:49.570Z,1.40
2019-04-27T13:59:17.655Z,1.73
2019-04-27T14:01:45.838Z,2.57
2019-04-27T14:04:14.062Z,1.80
2019-04-27T14:06:42.230Z,1.20
2019-04-27T14:09:12.754Z,0.80
2019-04-27T14:11:41.648Z,0.60
2019-04-27T14:14:18.425Z,0.40
2019-04-27T14:16:45.267Z,0.40
2019-04-27T14:19:22.774Z,0.60
2019-04-27T14:21:51.361Z,0.50
2019-04-27T14:24:27.721Z,0.30
2019-04-27T14:26:50.072Z,0.30
2019-04-27T14:29:19.359Z,0.50
2019-04-27T14:31:47.859Z,0.30
2019-04-27T14:34:19.017Z,0.50
2019-04-27T14:36:48.856Z,0.40
2019-04-27T14:39:18.499Z,0.40
2019-04-27T14:41:46.854Z,0.50
2019-04-27T14:44:23.062Z,0.47
2019-04-27T14:46:55.251Z,0.50
2019-04-27T14:49:23.356Z,0.30
2019-04-27T14:51:51.521Z,0.23
2019-04-27T14:54:20.752Z,0.40
2019-04-27T14:56:49.000Z,0.40
2019-04-27T14:59:18.688Z,0.40
2019-04-27T15:01:48.678Z,0.43
2019-04-27T15:04:16.912Z,0.50
2019-04-27T15:06:45.617Z,0.40
2019-04-27T15:09:18.026Z,0.30
2019-04-27T15:11:45.089Z,0.40
2019-04-27T15:14:31.075Z,0.40
2019-04-27T15:17:01.368Z,0.80
2019-04-27T15:19:35.979Z,0.40
2019-04-27T15:22:05.936Z,0.60
2019-04-27T15:24:34.019Z,0.50
2019-04-27T15:27:02.471Z,0.57
2019-04-27T15:29:32.533Z,0.30
2019-04-27T15:32:06.621Z,0.40
2019-04-27T15:35:07.807Z,0.50
2019-04-27T15:37:49.831Z,0.40
2019-04-27T15:40:28.885Z,0.60
2019-04-27T15:43:27.316Z,0.50
2019-04-27T15:45:57.703Z,0.60
2019-04-27T15:48:30.531Z,0.70
2019-04-27T15:51:02.878Z,0.50
2019-04-27T15:53:28.852Z,0.70
2019-04-27T15:56:00.015Z,0.73
2019-04-27T15:58:28.393Z,0.73
2019-04-27T16:01:09.062Z,0.70
2019-04-27T16:03:35.066Z,0.60
2019-04-27T16:06:08.102Z,0.60
2019-04-27T16:08:38.205Z,0.50
2019-04-27T16:11:17.740Z,0.47
2019-04-27T16:13:45.114Z,0.40
2019-04-27T16:16:14.295Z,0.50
2019-04-27T16:18:42.360Z,0.53
2019-04-27T16:21:10.973Z,0.63
2019-04-27T16:23:42.764Z,0.60
2019-04-27T16:26:11.101Z,0.60
2019-04-27T16:28:43.225Z,0.60
2019-04-27T16:31:09.571Z,0.60
2019-04-27T16:33:39.123Z,0.60
2019-04-27T16:36:07.584Z,0.60
2019-04-27T16:38:56.843Z,0.70
2019-04-27T16:41:25.951Z,0.53
2019-04-27T16:43:54.132Z,0.67
2019-04-27T16:46:22.219Z,0.50
2019-04-27T16:48:50.276Z,0.70
2019-04-27T16:51:18.542Z,0.90
2019-04-27T16:53:46.838Z,0.70
2019-04-27T16:56:18.301Z,0.73
2019-04-27T16:58:48.984Z,0.60
2019-04-27T17:01:23.286Z,0.80
2019-04-27T17:03:52.495Z,0.70
2019-04-27T17:06:21.765Z,0.50
2019-04-27T17:08:51.161Z,0.67
2019-04-27T17:11:19.876Z,0.60
2019-04-27T17:14:14.626Z,0.60
2019-04-27T17:17:03.643Z,0.50
2019-04-27T17:19:40.002Z,0.60
2019-04-27T17:22:10.473Z,0.70
2019-04-27T17:24:42.742Z,0.50
2019-04-27T17:27:29.831Z,0.50
2019-04-27T17:30:01.434Z,0.60
2019-04-27T17:32:38.977Z,0.50
2019-04-27T17:35:12.930Z,0.70
2019-04-27T17:37:38.293Z,0.70
2019-04-27T17:40:06.681Z,0.57
2019-04-27T17:42:44.795Z,0.67
2019-04-27T17:45:22.017Z,0.60
2019-04-27T17:47:51.437Z,0.60
2019-04-27T17:50:24.987Z,0.60
2019-04-27T17:52:55.043Z,0.77
2019-04-27T17:55:24.211Z,0.60
2019-04-27T17:57:50.059Z,0.80
2019-04-27T18:00:21.272Z,0.50
2019-04-27T18:02:50.666Z,0.67
2019-04-27T18:05:28.509Z,0.70
2019-04-27T18:07:57.999Z,0.60
2019-04-27T18:10:28.175Z,0.57
2019-04-27T18:12:58.716Z,0.60
2019-04-27T18:15:32.320Z,0.57
2019-04-27T18:18:05.956Z,0.60
2019-04-27T18:20:34.037Z,0.50
2019-04-27T18:23:08.892Z,0.80
2019-04-27T18:25:48.136Z,0.57
2019-04-27T18:28:20.883Z,0.60
2019-04-27T18:31:05.544Z,0.70
2019-04-27T18:33:38.634Z,0.80
2019-04-27T18:36:13.251Z,0.67
2019-04-27T18:38:39.053Z,0.50
2019-04-27T18:41:11.269Z,0.77
2019-04-27T18:43:45.921Z,0.60
2019-04-27T18:46:14.847Z,0.60
2019-04-27T18:49:03.980Z,0.50
2019-04-27T18:52:10.220Z,0.53
2019-04-27T18:54:41.913Z,0.50
2019-04-27T18:57:10.867Z,0.50
2019-04-27T18:59:39.055Z,0.60
2019-04-27T19:02:08.462Z,0.60
2019-04-27T19:04:36.844Z,0.70
2019-04-27T19:07:04.958Z,0.50
2019-04-27T19:09:33.586Z,0.63
2019-04-27T19:12:04.152Z,0.60
2019-04-27T19:14:36.573Z,0.70
2019-04-27T19:17:10.052Z,0.70
2019-04-27T19:19:42.483Z,0.67
2019-04-27T19:22:10.585Z,0.50
2019-04-27T19:24:38.674Z,0.47
2019-04-27T19:27:48.986Z,0.50
2019-04-27T19:30:33.949Z,0.60
2019-04-27T19:33:02.342Z,0.60
2019-04-27T19:35:30.462Z,0.70
2019-04-27T19:37:59.119Z,0.67
2019-04-27T19:40:29.045Z,0.63
2019-04-27T19:42:58.806Z,0.70
2019-04-27T19:45:29.143Z,0.57
2019-04-27T19:47:57.373Z,0.70
2019-04-27T19:50:25.583Z,0.73
2019-04-27T19:52:53.660Z,0.83
2019-04-27T19:55:33.880Z,0.50
2019-04-27T19:58:02.379Z,0.70
2019-04-27T20:00:50.485Z,0.50
2019-04-27T20:03:25.763Z,0.70
2019-04-27T20:05:53.978Z,1.00
2019-04-27T20:08:25.721Z,0.60
2019-04-27T20:10:53.968Z,0.80
2019-04-27T20:13:22.072Z,0.70
2019-04-27T20:16:04.931Z,0.70
2019-04-27T20:18:33.013Z,0.50
2019-04-27T20:21:01.148Z,0.63
2019-04-27T20:23:30.766Z,0.80
2019-04-27T20:26:00.215Z,0.90
2019-04-27T20:28:28.381Z,0.78
2019-04-27T20:30:56.478Z,0.60
2019-04-27T20:33:24.520Z,0.70
2019-04-27T20:35:52.636Z,0.80
2019-04-27T20:38:21.373Z,1.00
2019-04-27T20:40:51.046Z,0.80
2019-04-27T20:43:28.085Z,0.80
2019-04-27T20:45:56.619Z,0.60
2019-04-27T20:48:24.805Z,0.80
2019-04-27T20:50:53.000Z,0.70
2019-04-27T20:53:43.217Z,0.80
2019-04-27T20:56:11.466Z,0.57
2019-04-27T20:58:41.084Z,0.60
2019-04-27T21:01:09.353Z,0.50
2019-04-27T21:03:51.166Z,0.70
2019-04-27T21:06:30.960Z,0.77
2019-04-27T21:09:16.758Z,0.70
2019-04-27T21:11:48.493Z,0.67
2019-04-27T21:14:16.640Z,0.67
2019-04-27T21:16:45.818Z,0.50
2019-04-27T21:19:14.272Z,0.60
2019-04-27T21:21:48.655Z,0.53
2019-04-27T21:24:17.101Z,0.63
2019-04-27T21:26:45.248Z,0.60
2019-04-27T21:29:13.599Z,0.70
2019-04-27T21:31:42.142Z,0.53
2019-04-27T21:34:10.190Z,0.53
2019-04-27T21:36:47.801Z,0.60
2019-04-27T21:39:16.975Z,0.70
2019-04-27T21:41:45.206Z,0.70
2019-04-27T21:44:13.387Z,0.60
2019-04-27T21:46:41.766Z,0.80
2019-04-27T21:49:11.204Z,0.43
2019-04-27T21:52:08.080Z,0.63
2019-04-27T21:54:37.153Z,0.53
2019-04-27T21:57:13.444Z,0.50
2019-04-27T21:59:42.105Z,0.50
2019-04-27T22:02:12.145Z,0.60
2019-04-27T22:04:41.654Z,0.53
2019-04-27T22:07:19.238Z,0.60
2019-04-27T22:09:47.397Z,0.60
2019-04-27T22:12:15.956Z,0.80
2019-04-27T22:14:44.330Z,0.70
2019-04-27T22:17:12.629Z,0.53
2019-04-27T22:19:41.394Z,0.47
2019-04-27T22:22:21.069Z,0.60
2019-04-27T22:24:49.149Z,0.60
2019-04-27T22:27:17.251Z,0.60
2019-04-27T22:29:45.282Z,0.53
2019-04-27T22:32:13.424Z,0.50
2019-04-27T22:34:41.488Z,0.60
2019-04-27T22:37:11.086Z,0.70
2019-04-27T22:39:45.772Z,0.50
2019-04-27T22:42:49.142Z,0.40
2019-04-27T22:45:21.232Z,0.60
2019-04-27T22:47:51.223Z,0.57
2019-04-27T22:50:21.060Z,0.50
2019-04-27T22:52:50.243Z,0.50
2019-04-27T22:55:18.252Z,0.60
2019-04-27T22:57:57.840Z,0.67
2019-04-27T23:00:42.654Z,0.60
2019-04-27T23:03:14.473Z,0.50
2019-04-27T23:05:42.979Z,0.50
2019-04-27T23:08:11.174Z,0.60
2019-04-27T23:10:39.410Z,0.60
2019-04-27T23:13:11.239Z,0.60
2019-04-27T23:15:43.663Z,0.57
2019-04-27T23:18:11.868Z,0.70
2019-04-27T23:20:40.795Z,0.70
2019-04-27T23:23:11.381Z,0.40
2019-04-27T23:25:42.393Z,0.70
2019-04-27T23:28:09.437Z,0.63
2019-04-27T23:31:02.229Z,0.50
2019-04-27T23:33:31.086Z,0.57
2019-04-27T23:35:59.246Z,0.50
2019-04-27T23:38:27.593Z,0.60
2019-04-27T23:40:55.655Z,0.60
2019-04-27T23:43:23.728Z,0.60
2019-04-27T23:45:51.883Z,0.50
2019-04-27T23:48:19.977Z,0.70
2019-04-27T23:50:50.376Z,0.67
2019-04-27T23:53:21.861Z,0.60
2019-04-27T23:55:50.252Z,0.60
2019-04-27T23:58:18.308Z,0.70
